sensor_id;sensor_type;location;lat;lon;timestamp;pressure;altitude;pressure_sealevel;temperature;humidity
19890;BME280;10107;51.198;6.824;2023-04-08T00:02:48;-21526.88;;;7.88;100.00
19890;BME280;10107;51.198;6.824;2023-04-08T00:06:50;-21526.22;;;7.86;100.00
19890;BME280;10107;51.198;6.824;2023-04-08T00:10:51;-21526.75;;;7.88;100.00
19890;BME280;10107;51.198;6.824;2023-04-08T00:14:54;-21526.75;;;7.88;100.00
19890;BME280;10107;51.198;6.824;2023-04-08T00:18:56;-21527.16;;;7.89;100.00
19890;BME280;10107;51.198;6.824;2023-04-08T00:22:58;-21527.28;;;7.90;100.00
19890;BME280;10107;51.198;6.824;2023-04-08T00:27:00;-21527.16;;;7.89;100.00
19890;BME280;10107;51.198;6.824;2023-04-08T00:31:03;-21526.22;;;7.86;100.00
19890;BME280;10107;51.198;6.824;2023-04-08T00:35:05;-21526.47;;;7.87;100.00
19890;BME280;10107;51.198;6.824;2023-04-08T00:39:07;-21526.22;;;7.86;100.00
19890;BME280;10107;51.198;6.824;2023-04-08T00:43:09;-21526.59;;;7.87;100.00
19890;BME280;10107;51.198;6.824;2023-04-08T00:47:12;-21526.88;;;7.88;100.00
19890;BME280;10107;51.198;6.824;2023-04-08T00:51:14;-21526.88;;;7.88;100.00
19890;BME280;10107;51.198;6.824;2023-04-08T00:55:16;-21527.41;;;7.90;100.00
19890;BME280;10107;51.198;6.824;2023-04-08T00:59:18;-21527.00;;;7.89;100.00
19890;BME280;10107;51.198;6.824;2023-04-08T01:03:26;-21527.28;;;7.90;100.00
19890;BME280;10107;51.198;6.824;2023-04-08T01:07:32;-21527.16;;;7.89;100.00
19890;BME280;10107;51.198;6.824;2023-04-08T01:11:34;-21527.28;;;7.90;100.00
19890;BME280;10107;51.198;6.824;2023-04-08T01:15:41;-21526.88;;;7.88;100.00
19890;BME280;10107;51.198;6.824;2023-04-08T01:19:45;-21527.28;;;7.90;100.00
19890;BME280;10107;51.198;6.824;2023-04-08T01:23:57;-21527.16;;;7.89;100.00
19890;BME280;10107;51.198;6.824;2023-04-08T01:28:04;-21527.41;;;7.90;100.00
19890;BME280;10107;51.198;6.824;2023-04-08T01:32:06;-21527.81;;;7.92;100.00
19890;BME280;10107;51.198;6.824;2023-04-08T01:36:09;-21528.06;;;7.93;100.00
19890;BME280;10107;51.198;6.824;2023-04-08T01:40:11;-21528.88;;;7.96;100.00
19890;BME280;10107;51.198;6.824;2023-04-08T01:44:15;-21528.59;;;7.95;100.00
19890;BME280;10107;51.198;6.824;2023-04-08T01:48:22;-21529.00;;;7.97;100.00
19890;BME280;10107;51.198;6.824;2023-04-08T01:52:25;-21529.13;;;7.97;100.00
19890;BME280;10107;51.198;6.824;2023-04-08T01:56:32;-21529.41;;;7.98;100.00
19890;BME280;10107;51.198;6.824;2023-04-08T02:00:39;-21530.06;;;8.01;100.00
19890;BME280;10107;51.198;6.824;2023-04-08T02:04:42;-21530.47;;;8.02;100.00
19890;BME280;10107;51.198;6.824;2023-04-08T02:08:44;-21530.34;;;8.02;100.00
19890;BME280;10107;51.198;6.824;2023-04-08T02:12:47;-21529.13;;;7.97;100.00
19890;BME280;10107;51.198;6.824;2023-04-08T02:16:52;-21528.59;;;7.95;100.00
19890;BME280;10107;51.198;6.824;2023-04-08T02:20:58;-21528.34;;;7.94;100.00
19890;BME280;10107;51.198;6.824;2023-04-08T02:25:03;-21528.59;;;7.95;100.00
19890;BME280;10107;51.198;6.824;2023-04-08T02:29:11;-21528.88;;;7.96;100.00
19890;BME280;10107;51.198;6.824;2023-04-08T02:33:17;-21529.53;;;7.99;100.00
19890;BME280;10107;51.198;6.824;2023-04-08T02:37:19;-21530.19;;;8.01;100.00
19890;BME280;10107;51.198;6.824;2023-04-08T02:41:21;-21531.13;;;8.05;100.00
19890;BME280;10107;51.198;6.824;2023-04-08T02:45:26;-21531.41;;;8.06;100.00
19890;BME280;10107;51.198;6.824;2023-04-08T02:49:30;-21531.78;;;8.07;100.00
19890;BME280;10107;51.198;6.824;2023-04-08T02:53:32;-21531.66;;;8.07;100.00
19890;BME280;10107;51.198;6.824;2023-04-08T02:57:33;-21531.25;;;8.05;100.00
19890;BME280;10107;51.198;6.824;2023-04-08T03:01:36;-21531.53;;;8.06;100.00
19890;BME280;10107;51.198;6.824;2023-04-08T03:05:39;-21531.41;;;8.06;100.00
19890;BME280;10107;51.198;6.824;2023-04-08T03:09:41;-21531.53;;;8.06;100.00
19890;BME280;10107;51.198;6.824;2023-04-08T03:13:44;-21531.53;;;8.06;100.00
19890;BME280;10107;51.198;6.824;2023-04-08T03:17:46;-21531.41;;;8.06;100.00
19890;BME280;10107;51.198;6.824;2023-04-08T03:21:48;-21531.00;;;8.04;100.00
19890;BME280;10107;51.198;6.824;2023-04-08T03:25:51;-21530.34;;;8.02;100.00
19890;BME280;10107;51.198;6.824;2023-04-08T03:29:53;-21529.41;;;7.98;100.00
19890;BME280;10107;51.198;6.824;2023-04-08T03:33:56;-21528.88;;;7.96;100.00
19890;BME280;10107;51.198;6.824;2023-04-08T03:37:59;-21528.22;;;7.93;100.00
19890;BME280;10107;51.198;6.824;2023-04-08T03:42:01;-21527.00;;;7.89;100.00
19890;BME280;10107;51.198;6.824;2023-04-08T03:46:03;-21525.41;;;7.83;100.00
19890;BME280;10107;51.198;6.824;2023-04-08T03:50:06;-21522.75;;;7.72;100.00
19890;BME280;10107;51.198;6.824;2023-04-08T03:54:09;-21519.69;;;7.61;100.00
19890;BME280;10107;51.198;6.824;2023-04-08T03:58:10;-21515.31;;;7.44;100.00
19890;BME280;10107;51.198;6.824;2023-04-08T04:02:12;-21510.78;;;7.26;100.00
19890;BME280;10107;51.198;6.824;2023-04-08T04:06:14;-21506.50;;;7.10;100.00
19890;BME280;10107;51.198;6.824;2023-04-08T04:10:17;-21503.84;;;7.00;100.00
19890;BME280;10107;51.198;6.824;2023-04-08T04:14:18;-21502.00;;;6.92;100.00
19890;BME280;10107;51.198;6.824;2023-04-08T04:18:20;-21500.00;;;6.85;100.00
19890;BME280;10107;51.198;6.824;2023-04-08T04:22:22;-21497.59;;;6.76;100.00
19890;BME280;10107;51.198;6.824;2023-04-08T04:26:25;-21495.84;;;6.69;100.00
19890;BME280;10107;51.198;6.824;2023-04-08T04:30:27;-21495.72;;;6.68;100.00
19890;BME280;10107;51.198;6.824;2023-04-08T04:34:28;-21495.59;;;6.68;100.00
19890;BME280;10107;51.198;6.824;2023-04-08T04:38:30;-21495.06;;;6.66;100.00
19890;BME280;10107;51.198;6.824;2023-04-08T04:42:33;-21495.84;;;6.69;100.00
19890;BME280;10107;51.198;6.824;2023-04-08T04:46:34;-21498.00;;;6.77;100.00
19890;BME280;10107;51.198;6.824;2023-04-08T04:50:36;-21499.47;;;6.83;100.00
19890;BME280;10107;51.198;6.824;2023-04-08T04:54:38;-21500.91;;;6.88;100.00
19890;BME280;10107;51.198;6.824;2023-04-08T04:58:41;-21502.25;;;6.93;100.00
19890;BME280;10107;51.198;6.824;2023-04-08T05:02:42;-21502.38;;;6.94;100.00
19890;BME280;10107;51.198;6.824;2023-04-08T05:06:44;-21502.66;;;6.95;100.00
19890;BME280;10107;51.198;6.824;2023-04-08T05:10:46;-21502.78;;;6.96;100.00
19890;BME280;10107;51.198;6.824;2023-04-08T05:14:50;-21503.31;;;6.98;100.00
19890;BME280;10107;51.198;6.824;2023-04-08T05:18:52;-21505.03;;;7.04;100.00
19890;BME280;10107;51.198;6.824;2023-04-08T05:22:53;-21508.09;;;7.16;100.00
19890;BME280;10107;51.198;6.824;2023-04-08T05:26:55;-21510.78;;;7.26;100.00
19890;BME280;10107;51.198;6.824;2023-04-08T05:30:58;-21512.63;;;7.33;100.00
19890;BME280;10107;51.198;6.824;2023-04-08T05:35:01;-21513.97;;;7.39;100.00
19890;BME280;10107;51.198;6.824;2023-04-08T05:39:03;-21515.69;;;7.45;100.00
19890;BME280;10107;51.198;6.824;2023-04-08T05:43:05;-21518.63;;;7.57;100.00
19890;BME280;10107;51.198;6.824;2023-04-08T05:47:08;-21522.88;;;7.73;100.00
19890;BME280;10107;51.198;6.824;2023-04-08T05:51:12;-21526.59;;;7.87;100.00
19890;BME280;10107;51.198;6.824;2023-04-08T05:55:14;-21531.25;;;8.05;100.00
19890;BME280;10107;51.198;6.824;2023-04-08T05:59:15;-21535.78;;;8.23;100.00
19890;BME280;10107;51.198;6.824;2023-04-08T06:03:18;-21539.38;;;8.37;100.00
19890;BME280;10107;51.198;6.824;2023-04-08T06:07:20;-21541.63;;;8.45;100.00
19890;BME280;10107;51.198;6.824;2023-04-08T06:11:22;-21542.16;;;8.47;100.00
19890;BME280;10107;51.198;6.824;2023-04-08T06:15:24;-21542.03;;;8.47;100.00
19890;BME280;10107;51.198;6.824;2023-04-08T06:19:28;-21543.63;;;8.53;100.00
19890;BME280;10107;51.198;6.824;2023-04-08T06:23:30;-21543.63;;;8.53;100.00
19890;BME280;10107;51.198;6.824;2023-04-08T06:27:31;-21548.53;;;8.72;100.00
19890;BME280;10107;51.198;6.824;2023-04-08T06:31:33;-21551.06;;;8.82;100.00
19890;BME280;10107;51.198;6.824;2023-04-08T06:35:36;-21554.66;;;8.96;100.00
19890;BME280;10107;51.198;6.824;2023-04-08T06:39:38;-21555.19;;;8.98;100.00
19890;BME280;10107;51.198;6.824;2023-04-08T06:43:40;-21558.25;;;9.09;100.00
19890;BME280;10107;51.198;6.824;2023-04-08T06:47:41;-21559.84;;;9.16;100.00
19890;BME280;10107;51.198;6.824;2023-04-08T06:51:44;-21562.63;;;9.26;100.00
19890;BME280;10107;51.198;6.824;2023-04-08T06:55:46;-21568.72;;;9.50;100.00
19890;BME280;10107;51.198;6.824;2023-04-08T06:59:47;-21563.56;;;9.30;100.00
19890;BME280;10107;51.198;6.824;2023-04-08T07:03:49;-21556.50;;;9.03;100.00
19890;BME280;10107;51.198;6.824;2023-04-08T07:07:52;-21552.94;;;8.89;100.00
19890;BME280;10107;51.198;6.824;2023-04-08T07:11:54;-21557.19;;;9.05;100.00
19890;BME280;10107;51.198;6.824;2023-04-08T07:15:57;-21568.72;;;9.50;100.00
19890;BME280;10107;51.198;6.824;2023-04-08T07:19:59;-21584.13;;;10.09;100.00
19890;BME280;10107;51.198;6.824;2023-04-08T07:24:02;-21591.00;;;10.36;100.00
19890;BME280;10107;51.198;6.824;2023-04-08T07:28:04;-21597.91;;;10.63;100.00
19890;BME280;10107;51.198;6.824;2023-04-08T07:32:06;-21595.50;;;10.54;100.00
19890;BME280;10107;51.198;6.824;2023-04-08T07:36:08;-21590.59;;;10.35;100.00
19890;BME280;10107;51.198;6.824;2023-04-08T07:40:12;-21584.38;;;10.10;100.00
19890;BME280;10107;51.198;6.824;2023-04-08T07:44:14;-21578.69;;;9.88;100.00
19890;BME280;10107;51.198;6.824;2023-04-08T07:48:16;-21577.09;;;9.82;100.00
19890;BME280;10107;51.198;6.824;2023-04-08T07:52:18;-21573.91;;;9.70;100.00
19890;BME280;10107;51.198;6.824;2023-04-08T07:56:21;-21573.63;;;9.69;100.00
19890;BME280;10107;51.198;6.824;2023-04-08T08:00:22;-21576.16;;;9.79;100.00
19890;BME280;10107;51.198;6.824;2023-04-08T08:04:24;-21578.94;;;9.89;100.00
19890;BME280;10107;51.198;6.824;2023-04-08T08:08:27;-21582.78;;;10.04;100.00
19890;BME280;10107;51.198;6.824;2023-04-08T08:12:30;-21589.28;;;10.29;100.00
19890;BME280;10107;51.198;6.824;2023-04-08T08:16:32;-21589.28;;;10.29;100.00
19890;BME280;10107;51.198;6.824;2023-04-08T08:20:34;-21585.97;;;10.17;100.00
19890;BME280;10107;51.198;6.824;2023-04-08T08:24:36;-21588.63;;;10.27;100.00
19890;BME280;10107;51.198;6.824;2023-04-08T08:28:39;-21600.41;;;10.73;100.00
19890;BME280;10107;51.198;6.824;2023-04-08T08:32:40;-21606.22;;;10.95;100.00
19890;BME280;10107;51.198;6.824;2023-04-08T08:36:42;-21606.22;;;10.95;100.00
19890;BME280;10107;51.198;6.824;2023-04-08T08:40:44;-21609.28;;;11.07;100.00
19890;BME280;10107;51.198;6.824;2023-04-08T08:44:47;-21605.31;;;10.92;100.00
19890;BME280;10107;51.198;6.824;2023-04-08T08:48:49;-21601.34;;;10.76;100.00
19890;BME280;10107;51.198;6.824;2023-04-08T08:52:51;-21601.34;;;10.76;100.00
19890;BME280;10107;51.198;6.824;2023-04-08T08:56:53;-21600.00;;;10.71;100.00
19890;BME280;10107;51.198;6.824;2023-04-08T09:00:56;-21598.69;;;10.66;100.00
19890;BME280;10107;51.198;6.824;2023-04-08T09:04:58;-21596.56;;;10.58;100.00
19890;BME280;10107;51.198;6.824;2023-04-08T09:09:01;-21599.22;;;10.68;100.00
19890;BME280;10107;51.198;6.824;2023-04-08T09:13:05;-21601.88;;;10.78;100.00
19890;BME280;10107;51.198;6.824;2023-04-08T09:17:08;-21604.38;;;10.88;100.00
19890;BME280;10107;51.198;6.824;2023-04-08T09:21:11;-21603.06;;;10.83;100.00
19890;BME280;10107;51.198;6.824;2023-04-08T09:25:22;-21604.00;;;10.86;100.00
19890;BME280;10107;51.198;6.824;2023-04-08T09:29:24;-21612.72;;;11.20;100.00
19890;BME280;10107;51.198;6.824;2023-04-08T09:33:31;-21613.66;;;11.24;100.00
19890;BME280;10107;51.198;6.824;2023-04-08T09:37:33;-21613.13;;;11.22;100.00
19890;BME280;10107;51.198;6.824;2023-04-08T09:41:36;-21623.97;;;11.64;100.00
19890;BME280;10107;51.198;6.824;2023-04-08T09:45:38;-21636.13;;;12.11;100.00
19890;BME280;10107;51.198;6.824;2023-04-08T09:49:45;-21658.31;;;12.97;100.00
19890;BME280;10107;51.198;6.824;2023-04-08T09:54:02;-21668.75;;;13.38;100.00
19890;BME280;10107;51.198;6.824;2023-04-08T09:58:10;-21660.56;;;13.06;100.00
19890;BME280;10107;51.198;6.824;2023-04-08T10:02:20;-21652.38;;;12.74;100.00
19890;BME280;10107;51.198;6.824;2023-04-08T10:06:28;-21643.66;;;12.40;100.00
19890;BME280;10107;51.198;6.824;2023-04-08T10:10:31;-21637.59;;;12.17;100.00
19890;BME280;10107;51.198;6.824;2023-04-08T10:14:33;-21635.34;;;12.08;100.00
19890;BME280;10107;51.198;6.824;2023-04-08T10:18:34;-21642.59;;;12.36;100.00
19890;BME280;10107;51.198;6.824;2023-04-08T10:22:48;-21650.00;;;12.65;100.00
19890;BME280;10107;51.198;6.824;2023-04-08T10:26:49;-21663.72;;;13.18;100.00
19890;BME280;10107;51.198;6.824;2023-04-08T10:30:52;-21670.31;;;13.44;98.67
19890;BME280;10107;51.198;6.824;2023-04-08T10:34:54;-21664.13;;;13.20;96.59
19890;BME280;10107;51.198;6.824;2023-04-08T10:38:58;-21671.50;;;13.49;98.50
19890;BME280;10107;51.198;6.824;2023-04-08T10:42:59;-21688.09;;;14.13;96.15
19890;BME280;10107;51.198;6.824;2023-04-08T10:47:01;-21697.59;;;14.50;94.01
19890;BME280;10107;51.198;6.824;2023-04-08T10:51:04;-21724.53;;;15.55;88.09
19890;BME280;10107;51.198;6.824;2023-04-08T10:55:07;-21780.53;;;17.74;76.76
19890;BME280;10107;51.198;6.824;2023-04-08T10:59:09;-21794.28;;;18.28;70.97
19890;BME280;10107;51.198;6.824;2023-04-08T11:03:11;-21856.94;;;20.74;63.70
19890;BME280;10107;51.198;6.824;2023-04-08T11:07:12;-21861.88;;;20.94;61.07
19890;BME280;10107;51.198;6.824;2023-04-08T11:11:18;-21860.06;;;20.87;57.54
19890;BME280;10107;51.198;6.824;2023-04-08T11:15:21;-21830.88;;;19.72;60.65
19890;BME280;10107;51.198;6.824;2023-04-08T11:19:23;-21812.19;;;18.98;63.08
19890;BME280;10107;51.198;6.824;2023-04-08T11:23:25;-21782.91;;;17.84;64.47
19890;BME280;10107;51.198;6.824;2023-04-08T11:27:28;-21755.91;;;16.78;70.11
19890;BME280;10107;51.198;6.824;2023-04-08T11:31:30;-21738.22;;;16.09;73.52
19890;BME280;10107;51.198;6.824;2023-04-08T11:35:33;-21741.09;;;16.20;72.13
19890;BME280;10107;51.198;6.824;2023-04-08T11:39:39;-21752.91;;;16.66;71.19
19890;BME280;10107;51.198;6.824;2023-04-08T11:43:53;-21760.78;;;16.97;70.60
19890;BME280;10107;51.198;6.824;2023-04-08T11:47:55;-21746.59;;;16.41;61.44
19890;BME280;10107;51.198;6.824;2023-04-08T11:51:58;-21724.53;;;15.55;58.33
19890;BME280;10107;51.198;6.824;2023-04-08T11:56:15;-21704.31;;;14.76;61.07
19890;BME280;10107;51.198;6.824;2023-04-08T12:00:18;-21700.34;;;14.61;59.32
19890;BME280;10107;51.198;6.824;2023-04-08T12:04:20;-21696.94;;;14.48;62.67
19890;BME280;10107;51.198;6.824;2023-04-08T12:08:22;-21684.41;;;13.99;60.62
19890;BME280;10107;51.198;6.824;2023-04-08T12:12:24;-21683.38;;;13.95;62.59
19890;BME280;10107;51.198;6.824;2023-04-08T12:16:26;-21672.56;;;13.53;62.39
19890;BME280;10107;51.198;6.824;2023-04-08T12:20:28;-21684.94;;;14.01;63.99
19890;BME280;10107;51.198;6.824;2023-04-08T12:24:30;-21691.78;;;14.27;60.11
19890;BME280;10107;51.198;6.824;2023-04-08T12:28:31;-21682.72;;;13.92;57.85
19890;BME280;10107;51.198;6.824;2023-04-08T12:32:35;-21673.88;;;13.58;61.34
19890;BME280;10107;51.198;6.824;2023-04-08T12:36:37;-21668.75;;;13.38;63.31
19890;BME280;10107;51.198;6.824;2023-04-08T12:40:38;-21660.03;;;13.04;65.40
19890;BME280;10107;51.198;6.824;2023-04-08T12:44:40;-21655.94;;;12.88;66.10
19890;BME280;10107;51.198;6.824;2023-04-08T12:48:43;-21650.38;;;12.66;67.45
19890;BME280;10107;51.198;6.824;2023-04-08T12:52:45;-21652.38;;;12.74;68.64
19890;BME280;10107;51.198;6.824;2023-04-08T12:56:46;-21659.09;;;13.00;66.38
19890;BME280;10107;51.198;6.824;2023-04-08T13:00:48;-21660.56;;;13.06;67.13
19890;BME280;10107;51.198;6.824;2023-04-08T13:04:51;-21659.50;;;13.02;66.47
19890;BME280;10107;51.198;6.824;2023-04-08T13:08:54;-21677.03;;;13.70;67.76
19890;BME280;10107;51.198;6.824;2023-04-08T13:12:56;-21696.78;;;14.47;64.99
19890;BME280;10107;51.198;6.824;2023-04-08T13:16:57;-21710.88;;;15.02;62.50
19890;BME280;10107;51.198;6.824;2023-04-08T13:21:00;-21710.22;;;14.99;62.15
19890;BME280;10107;51.198;6.824;2023-04-08T13:25:02;-21691.53;;;14.26;65.00
19890;BME280;10107;51.198;6.824;2023-04-08T13:29:05;-21684.41;;;13.99;69.80
19890;BME280;10107;51.198;6.824;2023-04-08T13:33:07;-21686.66;;;14.07;68.52
19890;BME280;10107;51.198;6.824;2023-04-08T13:37:10;-21690.09;;;14.21;69.54
19890;BME280;10107;51.198;6.824;2023-04-08T13:41:12;-21698.63;;;14.54;68.54
19890;BME280;10107;51.198;6.824;2023-04-08T13:45:13;-21704.81;;;14.78;69.52
19890;BME280;10107;51.198;6.824;2023-04-08T13:49:15;-21716.41;;;15.23;68.19
19890;BME280;10107;51.198;6.824;2023-04-08T13:53:18;-21724.94;;;15.57;67.32
19890;BME280;10107;51.198;6.824;2023-04-08T13:57:22;-21730.84;;;15.80;66.57
19890;BME280;10107;51.198;6.824;2023-04-08T14:01:23;-21732.16;;;15.85;66.80
19890;BME280;10107;51.198;6.824;2023-04-08T14:05:25;-21715.22;;;15.19;67.99
19890;BME280;10107;51.198;6.824;2023-04-08T14:09:28;-21698.63;;;14.54;71.62
19890;BME280;10107;51.198;6.824;2023-04-08T14:13:30;-21684.16;;;13.98;75.00
19890;BME280;10107;51.198;6.824;2023-04-08T14:17:32;-21673.47;;;13.56;78.19
19890;BME280;10107;51.198;6.824;2023-04-08T14:21:35;-21674.13;;;13.59;78.53
19890;BME280;10107;51.198;6.824;2023-04-08T14:25:39;-21686.91;;;14.09;77.83
19890;BME280;10107;51.198;6.824;2023-04-08T14:29:41;-21702.19;;;14.68;75.00
19890;BME280;10107;51.198;6.824;2023-04-08T14:33:42;-21711.53;;;15.04;74.26
19890;BME280;10107;51.198;6.824;2023-04-08T14:37:44;-21712.06;;;15.07;72.89
19890;BME280;10107;51.198;6.824;2023-04-08T14:41:47;-21702.97;;;14.71;74.32
19890;BME280;10107;51.198;6.824;2023-04-08T14:45:49;-21692.19;;;14.29;77.07
19890;BME280;10107;51.198;6.824;2023-04-08T14:49:51;-21691.78;;;14.27;77.79
19890;BME280;10107;51.198;6.824;2023-04-08T14:53:52;-21681.38;;;13.87;78.97
19890;BME280;10107;51.198;6.824;2023-04-08T14:57:55;-21675.72;;;13.65;82.17
19890;BME280;10107;51.198;6.824;2023-04-08T15:01:57;-21677.31;;;13.71;82.65
19890;BME280;10107;51.198;6.824;2023-04-08T15:05:59;-21682.84;;;13.93;81.65
19890;BME280;10107;51.198;6.824;2023-04-08T15:10:01;-21684.28;;;13.98;80.95
19890;BME280;10107;51.198;6.824;2023-04-08T15:14:04;-21676.66;;;13.69;82.43
19890;BME280;10107;51.198;6.824;2023-04-08T15:18:06;-21673.47;;;13.56;83.42
19890;BME280;10107;51.198;6.824;2023-04-08T15:22:07;-21671.63;;;13.49;84.09
19890;BME280;10107;51.198;6.824;2023-04-08T15:26:09;-21668.75;;;13.38;84.99
19890;BME280;10107;51.198;6.824;2023-04-08T15:30:12;-21669.25;;;13.40;86.19
19890;BME280;10107;51.198;6.824;2023-04-08T15:34:14;-21662.00;;;13.12;87.53
19890;BME280;10107;51.198;6.824;2023-04-08T15:38:16;-21656.34;;;12.90;88.94
19890;BME280;10107;51.198;6.824;2023-04-08T15:42:18;-21651.44;;;12.71;89.69
19890;BME280;10107;51.198;6.824;2023-04-08T15:46:21;-21646.97;;;12.53;90.53
19890;BME280;10107;51.198;6.824;2023-04-08T15:50:22;-21639.69;;;12.25;92.75
19890;BME280;10107;51.198;6.824;2023-04-08T15:54:24;-21631.78;;;11.94;95.27
19890;BME280;10107;51.198;6.824;2023-04-08T15:58:26;-21621.44;;;11.54;97.92
19890;BME280;10107;51.198;6.824;2023-04-08T16:02:29;-21617.75;;;11.40;98.79
19890;BME280;10107;51.198;6.824;2023-04-08T16:06:31;-21621.44;;;11.54;100.00
19890;BME280;10107;51.198;6.824;2023-04-08T16:10:32;-21625.41;;;11.69;98.35
19890;BME280;10107;51.198;6.824;2023-04-08T16:14:34;-21629.25;;;11.84;96.86
19890;BME280;10107;51.198;6.824;2023-04-08T16:18:37;-21631.78;;;11.94;97.73
19890;BME280;10107;51.198;6.824;2023-04-08T16:22:40;-21628.47;;;11.81;98.52
19890;BME280;10107;51.198;6.824;2023-04-08T16:26:42;-21619.34;;;11.46;99.26
19890;BME280;10107;51.198;6.824;2023-04-08T16:30:44;-21614.31;;;11.26;100.00
19890;BME280;10107;51.198;6.824;2023-04-08T16:34:48;-21610.88;;;11.13;100.00
19890;BME280;10107;51.198;6.824;2023-04-08T16:38:49;-21606.91;;;10.98;100.00
19890;BME280;10107;51.198;6.824;2023-04-08T16:42:53;-21606.75;;;10.97;100.00
19890;BME280;10107;51.198;6.824;2023-04-08T16:46:54;-21605.19;;;10.91;100.00
19890;BME280;10107;51.198;6.824;2023-04-08T16:50:58;-21605.56;;;10.93;100.00
19890;BME280;10107;51.198;6.824;2023-04-08T16:55:00;-21602.00;;;10.79;100.00
19890;BME280;10107;51.198;6.824;2023-04-08T16:59:02;-21600.94;;;10.75;100.00
19890;BME280;10107;51.198;6.824;2023-04-08T17:03:03;-21597.09;;;10.60;100.00
19890;BME280;10107;51.198;6.824;2023-04-08T17:07:06;-21595.78;;;10.55;100.00
19890;BME280;10107;51.198;6.824;2023-04-08T17:11:10;-21593.00;;;10.44;100.00
19890;BME280;10107;51.198;6.824;2023-04-08T17:15:12;-21591.94;;;10.40;100.00
19890;BME280;10107;51.198;6.824;2023-04-08T17:19:13;-21592.59;;;10.42;100.00
19890;BME280;10107;51.198;6.824;2023-04-08T17:23:18;-21592.88;;;10.43;100.00
19890;BME280;10107;51.198;6.824;2023-04-08T17:27:20;-21590.59;;;10.35;100.00
19890;BME280;10107;51.198;6.824;2023-04-08T17:31:22;-21584.63;;;10.11;100.00
19890;BME280;10107;51.198;6.824;2023-04-08T17:35:24;-21578.53;;;9.88;100.00
19890;BME280;10107;51.198;6.824;2023-04-08T17:39:27;-21574.69;;;9.73;100.00
19890;BME280;10107;51.198;6.824;2023-04-08T17:43:29;-21571.91;;;9.62;100.00
19890;BME280;10107;51.198;6.824;2023-04-08T17:47:31;-21569.38;;;9.52;100.00
19890;BME280;10107;51.198;6.824;2023-04-08T17:51:32;-21566.72;;;9.42;100.00
19890;BME280;10107;51.198;6.824;2023-04-08T17:55:35;-21564.59;;;9.34;100.00
19890;BME280;10107;51.198;6.824;2023-04-08T17:59:37;-21562.50;;;9.26;100.00
19890;BME280;10107;51.198;6.824;2023-04-08T18:03:38;-21559.69;;;9.15;100.00
19890;BME280;10107;51.198;6.824;2023-04-08T18:07:40;-21557.19;;;9.05;100.00
19890;BME280;10107;51.198;6.824;2023-04-08T18:11:43;-21553.72;;;8.92;100.00
19890;BME280;10107;51.198;6.824;2023-04-08T18:15:45;-21552.41;;;8.87;100.00
19890;BME280;10107;51.198;6.824;2023-04-08T18:19:46;-21549.88;;;8.77;100.00
19890;BME280;10107;51.198;6.824;2023-04-08T18:23:48;-21547.34;;;8.67;100.00
19890;BME280;10107;51.198;6.824;2023-04-08T18:27:51;-21545.09;;;8.59;100.00
19890;BME280;10107;51.198;6.824;2023-04-08T18:31:53;-21544.44;;;8.56;100.00
19890;BME280;10107;51.198;6.824;2023-04-08T18:35:54;-21544.97;;;8.58;100.00
19890;BME280;10107;51.198;6.824;2023-04-08T18:39:56;-21546.28;;;8.63;100.00
19890;BME280;10107;51.198;6.824;2023-04-08T18:44:03;-21547.63;;;8.68;100.00
19890;BME280;10107;51.198;6.824;2023-04-08T18:48:05;-21548.94;;;8.74;100.00
19890;BME280;10107;51.198;6.824;2023-04-08T18:52:06;-21549.22;;;8.75;100.00
19890;BME280;10107;51.198;6.824;2023-04-08T18:56:13;-21548.94;;;8.74;100.00
19890;BME280;10107;51.198;6.824;2023-04-08T19:00:16;-21548.28;;;8.71;100.00
19890;BME280;10107;51.198;6.824;2023-04-08T19:04:18;-21546.94;;;8.66;100.00
19890;BME280;10107;51.198;6.824;2023-04-08T19:08:19;-21546.16;;;8.63;100.00
19890;BME280;10107;51.198;6.824;2023-04-08T19:12:21;-21544.81;;;8.58;100.00
19890;BME280;10107;51.198;6.824;2023-04-08T19:16:24;-21540.97;;;8.43;100.00
19890;BME280;10107;51.198;6.824;2023-04-08T19:20:26;-21536.06;;;8.24;100.00
19890;BME280;10107;51.198;6.824;2023-04-08T19:24:28;-21531.78;;;8.07;100.00
19890;BME280;10107;51.198;6.824;2023-04-08T19:28:30;-21528.34;;;7.94;100.00
19890;BME280;10107;51.198;6.824;2023-04-08T19:32:33;-21526.06;;;7.85;100.00
19890;BME280;10107;51.198;6.824;2023-04-08T19:36:35;-21523.41;;;7.75;100.00
19890;BME280;10107;51.198;6.824;2023-04-08T19:40:37;-21520.50;;;7.64;100.00
19890;BME280;10107;51.198;6.824;2023-04-08T19:44:39;-21516.91;;;7.50;100.00
19890;BME280;10107;51.198;6.824;2023-04-08T19:48:42;-21513.44;;;7.37;100.00
19890;BME280;10107;51.198;6.824;2023-04-08T19:52:44;-21510.50;;;7.25;100.00
19890;BME280;10107;51.198;6.824;2023-04-08T19:56:46;-21508.38;;;7.17;100.00
19890;BME280;10107;51.198;6.824;2023-04-08T20:00:47;-21506.66;;;7.10;100.00
19890;BME280;10107;51.198;6.824;2023-04-08T20:04:50;-21505.97;;;7.08;100.00
19890;BME280;10107;51.198;6.824;2023-04-08T20:08:52;-21504.91;;;7.04;100.00
19890;BME280;10107;51.198;6.824;2023-04-08T20:12:54;-21502.53;;;6.94;100.00
19890;BME280;10107;51.198;6.824;2023-04-08T20:16:55;-21501.06;;;6.89;100.00
19890;BME280;10107;51.198;6.824;2023-04-08T20:20:59;-21499.59;;;6.83;100.00
19890;BME280;10107;51.198;6.824;2023-04-08T20:25:00;-21498.25;;;6.78;100.00
19890;BME280;10107;51.198;6.824;2023-04-08T20:29:03;-21496.53;;;6.71;100.00
19890;BME280;10107;51.198;6.824;2023-04-08T20:33:04;-21495.59;;;6.68;100.00
19890;BME280;10107;51.198;6.824;2023-04-08T20:37:07;-21495.84;;;6.69;100.00
19890;BME280;10107;51.198;6.824;2023-04-08T20:41:09;-21494.66;;;6.64;100.00
19890;BME280;10107;51.198;6.824;2023-04-08T20:45:11;-21494.13;;;6.62;100.00
19890;BME280;10107;51.198;6.824;2023-04-08T20:49:13;-21492.94;;;6.58;100.00
19890;BME280;10107;51.198;6.824;2023-04-08T20:53:16;-21490.78;;;6.49;100.00
19890;BME280;10107;51.198;6.824;2023-04-08T20:57:18;-21488.00;;;6.39;100.00
19890;BME280;10107;51.198;6.824;2023-04-08T21:01:20;-21486.25;;;6.32;100.00
19890;BME280;10107;51.198;6.824;2023-04-08T21:05:23;-21486.41;;;6.32;100.00